sensor_id;sensor_type;location;lat;lon;timestamp;P1;durP1;ratioP1;P2;durP2;ratioP2
17177;SDS011;8704;52.006;4.374;2022-08-07T00:00:28;7.07;;;3.95;;
17177;SDS011;8704;52.006;4.374;2022-08-07T00:02:56;6.45;;;3.92;;
17177;SDS011;8704;52.006;4.374;2022-08-07T00:05:25;5.78;;;3.85;;
17177;SDS011;8704;52.006;4.374;2022-08-07T00:07:54;5.65;;;3.55;;
17177;SDS011;8704;52.006;4.374;2022-08-07T00:10:27;5.63;;;3.72;;
17177;SDS011;8704;52.006;4.374;2022-08-07T00:12:57;7.10;;;4.82;;
17177;SDS011;8704;52.006;4.374;2022-08-07T00:15:42;6.78;;;4.70;;
17177;SDS011;8704;52.006;4.374;2022-08-07T00:18:17;6.47;;;4.80;;
17177;SDS011;8704;52.006;4.374;2022-08-07T00:20:50;6.93;;;5.10;;
17177;SDS011;8704;52.006;4.374;2022-08-07T00:23:19;7.53;;;4.80;;
17177;SDS011;8704;52.006;4.374;2022-08-07T00:25:49;8.23;;;4.70;;
17177;SDS011;8704;52.006;4.374;2022-08-07T00:28:25;7.30;;;4.47;;
17177;SDS011;8704;52.006;4.374;2022-08-07T00:30:59;7.38;;;4.60;;
17177;SDS011;8704;52.006;4.374;2022-08-07T00:33:31;6.57;;;4.85;;
17177;SDS011;8704;52.006;4.374;2022-08-07T00:36:00;7.00;;;4.50;;
17177;SDS011;8704;52.006;4.374;2022-08-07T00:38:29;6.57;;;4.40;;
17177;SDS011;8704;52.006;4.374;2022-08-07T00:40:59;5.85;;;4.35;;
17177;SDS011;8704;52.006;4.374;2022-08-07T00:43:28;8.10;;;4.75;;
17177;SDS011;8704;52.006;4.374;2022-08-07T00:46:16;7.82;;;4.90;;
17177;SDS011;8704;52.006;4.374;2022-08-07T00:48:45;6.32;;;4.82;;
17177;SDS011;8704;52.006;4.374;2022-08-07T00:51:15;7.93;;;4.60;;
17177;SDS011;8704;52.006;4.374;2022-08-07T00:53:43;6.63;;;4.85;;
17177;SDS011;8704;52.006;4.374;2022-08-07T00:56:22;8.48;;;4.85;;
17177;SDS011;8704;52.006;4.374;2022-08-07T00:58:55;6.63;;;5.30;;
17177;SDS011;8704;52.006;4.374;2022-08-07T01:01:24;7.20;;;5.47;;
17177;SDS011;8704;52.006;4.374;2022-08-07T01:03:52;7.43;;;5.05;;
17177;SDS011;8704;52.006;4.374;2022-08-07T01:06:25;7.90;;;5.30;;
17177;SDS011;8704;52.006;4.374;2022-08-07T01:08:55;7.03;;;5.10;;
17177;SDS011;8704;52.006;4.374;2022-08-07T01:11:28;6.05;;;4.95;;
17177;SDS011;8704;52.006;4.374;2022-08-07T01:14:16;7.18;;;5.15;;
17177;SDS011;8704;52.006;4.374;2022-08-07T01:16:53;7.32;;;5.00;;
17177;SDS011;8704;52.006;4.374;2022-08-07T01:19:21;7.45;;;4.90;;
17177;SDS011;8704;52.006;4.374;2022-08-07T01:21:51;7.43;;;4.85;;
17177;SDS011;8704;52.006;4.374;2022-08-07T01:24:21;6.40;;;4.70;;
17177;SDS011;8704;52.006;4.374;2022-08-07T01:26:50;6.57;;;5.07;;
17177;SDS011;8704;52.006;4.374;2022-08-07T01:29:19;7.07;;;5.20;;
17177;SDS011;8704;52.006;4.374;2022-08-07T01:31:56;6.88;;;5.30;;
17177;SDS011;8704;52.006;4.374;2022-08-07T01:34:25;7.35;;;5.38;;
17177;SDS011;8704;52.006;4.374;2022-08-07T01:36:58;8.07;;;5.50;;
17177;SDS011;8704;52.006;4.374;2022-08-07T01:39:28;7.28;;;5.53;;
17177;SDS011;8704;52.006;4.374;2022-08-07T01:42:06;7.28;;;5.30;;
17177;SDS011;8704;52.006;4.374;2022-08-07T01:44:54;6.50;;;4.57;;
17177;SDS011;8704;52.006;4.374;2022-08-07T01:47:23;7.72;;;5.43;;
17177;SDS011;8704;52.006;4.374;2022-08-07T01:50:11;6.63;;;5.18;;
17177;SDS011;8704;52.006;4.374;2022-08-07T01:52:41;7.95;;;5.22;;
17177;SDS011;8704;52.006;4.374;2022-08-07T01:55:19;7.13;;;4.75;;
17177;SDS011;8704;52.006;4.374;2022-08-07T01:57:53;9.40;;;5.78;;
17177;SDS011;8704;52.006;4.374;2022-08-07T02:00:32;6.47;;;4.90;;
17177;SDS011;8704;52.006;4.374;2022-08-07T02:03:14;5.55;;;4.97;;
17177;SDS011;8704;52.006;4.374;2022-08-07T02:06:05;7.93;;;5.38;;
17177;SDS011;8704;52.006;4.374;2022-08-07T02:08:58;6.13;;;5.18;;
17177;SDS011;8704;52.006;4.374;2022-08-07T02:11:29;7.95;;;5.07;;
17177;SDS011;8704;52.006;4.374;2022-08-07T02:14:21;6.40;;;5.25;;
17177;SDS011;8704;52.006;4.374;2022-08-07T02:17:06;7.07;;;4.93;;
17177;SDS011;8704;52.006;4.374;2022-08-07T02:19:36;8.68;;;5.20;;
17177;SDS011;8704;52.006;4.374;2022-08-07T02:22:26;7.18;;;5.40;;
17177;SDS011;8704;52.006;4.374;2022-08-07T02:24:57;6.60;;;4.88;;
17177;SDS011;8704;52.006;4.374;2022-08-07T02:27:32;6.50;;;4.60;;
17177;SDS011;8704;52.006;4.374;2022-08-07T02:30:06;5.55;;;4.38;;
17177;SDS011;8704;52.006;4.374;2022-08-07T02:32:39;7.22;;;4.80;;
17177;SDS011;8704;52.006;4.374;2022-08-07T02:35:28;7.95;;;4.90;;
17177;SDS011;8704;52.006;4.374;2022-08-07T02:38:19;7.18;;;4.68;;
17177;SDS011;8704;52.006;4.374;2022-08-07T02:40:58;6.03;;;4.60;;
17177;SDS011;8704;52.006;4.374;2022-08-07T02:45:57;8.00;;;4.82;;
17177;SDS011;8704;52.006;4.374;2022-08-07T02:48:29;6.78;;;4.15;;
17177;SDS011;8704;52.006;4.374;2022-08-07T02:51:08;6.70;;;4.60;;
17177;SDS011;8704;52.006;4.374;2022-08-07T02:53:59;5.78;;;3.95;;
17177;SDS011;8704;52.006;4.374;2022-08-07T02:56:30;5.60;;;3.97;;
17177;SDS011;8704;52.006;4.374;2022-08-07T02:59:01;5.97;;;3.97;;
17177;SDS011;8704;52.006;4.374;2022-08-07T03:01:32;6.05;;;4.25;;
17177;SDS011;8704;52.006;4.374;2022-08-07T03:04:05;6.05;;;3.90;;
17177;SDS011;8704;52.006;4.374;2022-08-07T03:06:39;5.90;;;4.15;;
17177;SDS011;8704;52.006;4.374;2022-08-07T03:09:13;5.28;;;4.20;;
17177;SDS011;8704;52.006;4.374;2022-08-07T03:12:05;5.70;;;4.38;;
17177;SDS011;8704;52.006;4.374;2022-08-07T03:14:48;5.93;;;4.20;;
17177;SDS011;8704;52.006;4.374;2022-08-07T03:17:17;5.30;;;4.20;;
17177;SDS011;8704;52.006;4.374;2022-08-07T03:19:50;7.70;;;4.40;;
17177;SDS011;8704;52.006;4.374;2022-08-07T03:22:20;6.10;;;4.45;;
17177;SDS011;8704;52.006;4.374;2022-08-07T03:24:55;5.32;;;3.67;;
17177;SDS011;8704;52.006;4.374;2022-08-07T03:27:26;7.18;;;4.45;;
17177;SDS011;8704;52.006;4.374;2022-08-07T03:30:15;6.13;;;4.15;;
17177;SDS011;8704;52.006;4.374;2022-08-07T03:32:45;6.38;;;4.30;;
17177;SDS011;8704;52.006;4.374;2022-08-07T03:35:24;5.78;;;4.15;;
17177;SDS011;8704;52.006;4.374;2022-08-07T03:38:09;4.63;;;4.05;;
17177;SDS011;8704;52.006;4.374;2022-08-07T03:40:39;5.65;;;4.70;;
17177;SDS011;8704;52.006;4.374;2022-08-07T03:43:11;5.38;;;4.30;;
17177;SDS011;8704;52.006;4.374;2022-08-07T03:45:40;8.25;;;4.80;;
17177;SDS011;8704;52.006;4.374;2022-08-07T03:48:13;6.57;;;4.22;;
17177;SDS011;8704;52.006;4.374;2022-08-07T03:50:41;6.50;;;4.65;;
17177;SDS011;8704;52.006;4.374;2022-08-07T03:53:22;6.75;;;4.57;;
17177;SDS011;8704;52.006;4.374;2022-08-07T03:56:10;5.80;;;4.40;;
17177;SDS011;8704;52.006;4.374;2022-08-07T03:58:59;5.47;;;3.88;;
17177;SDS011;8704;52.006;4.374;2022-08-07T04:01:38;6.07;;;4.30;;
17177;SDS011;8704;52.006;4.374;2022-08-07T04:04:08;7.38;;;5.35;;
17177;SDS011;8704;52.006;4.374;2022-08-07T04:06:42;5.22;;;4.07;;
17177;SDS011;8704;52.006;4.374;2022-08-07T04:09:11;5.03;;;4.03;;
17177;SDS011;8704;52.006;4.374;2022-08-07T04:11:41;5.95;;;4.47;;
17177;SDS011;8704;52.006;4.374;2022-08-07T04:14:33;6.38;;;4.43;;
17177;SDS011;8704;52.006;4.374;2022-08-07T04:17:08;5.43;;;4.40;;
17177;SDS011;8704;52.006;4.374;2022-08-07T04:19:46;5.50;;;4.18;;
17177;SDS011;8704;52.006;4.374;2022-08-07T04:22:20;6.15;;;4.68;;
17177;SDS011;8704;52.006;4.374;2022-08-07T04:24:55;5.95;;;4.28;;
17177;SDS011;8704;52.006;4.374;2022-08-07T04:27:23;6.80;;;4.60;;
17177;SDS011;8704;52.006;4.374;2022-08-07T04:29:53;5.32;;;3.97;;
17177;SDS011;8704;52.006;4.374;2022-08-07T04:32:28;6.60;;;3.95;;
17177;SDS011;8704;52.006;4.374;2022-08-07T04:35:00;5.00;;;3.75;;
17177;SDS011;8704;52.006;4.374;2022-08-07T04:37:31;5.05;;;3.42;;
17177;SDS011;8704;52.006;4.374;2022-08-07T04:40:20;5.15;;;3.60;;
17177;SDS011;8704;52.006;4.374;2022-08-07T04:42:55;6.78;;;3.33;;
17177;SDS011;8704;52.006;4.374;2022-08-07T04:45:33;6.60;;;3.20;;
17177;SDS011;8704;52.006;4.374;2022-08-07T04:48:29;5.80;;;3.55;;
17177;SDS011;8704;52.006;4.374;2022-08-07T04:51:11;4.40;;;3.42;;
17177;SDS011;8704;52.006;4.374;2022-08-07T04:56:36;6.65;;;4.00;;
17177;SDS011;8704;52.006;4.374;2022-08-07T04:59:36;4.95;;;4.07;;
17177;SDS011;8704;52.006;4.374;2022-08-07T05:02:31;7.40;;;4.20;;
17177;SDS011;8704;52.006;4.374;2022-08-07T05:05:09;6.15;;;4.05;;
17177;SDS011;8704;52.006;4.374;2022-08-07T05:08:10;5.22;;;4.20;;
17177;SDS011;8704;52.006;4.374;2022-08-07T05:11:04;6.85;;;4.25;;
17177;SDS011;8704;52.006;4.374;2022-08-07T05:13:46;6.35;;;4.28;;
17177;SDS011;8704;52.006;4.374;2022-08-07T05:16:39;9.23;;;4.85;;
17177;SDS011;8704;52.006;4.374;2022-08-07T05:19:20;7.47;;;4.60;;
17177;SDS011;8704;52.006;4.374;2022-08-07T05:22:10;6.63;;;4.85;;
17177;SDS011;8704;52.006;4.374;2022-08-07T05:24:52;7.28;;;5.55;;
17177;SDS011;8704;52.006;4.374;2022-08-07T05:27:24;7.55;;;5.65;;
17177;SDS011;8704;52.006;4.374;2022-08-07T05:30:15;6.72;;;4.70;;
17177;SDS011;8704;52.006;4.374;2022-08-07T05:32:58;6.15;;;4.72;;
17177;SDS011;8704;52.006;4.374;2022-08-07T05:35:31;5.32;;;3.97;;
17177;SDS011;8704;52.006;4.374;2022-08-07T05:38:07;6.80;;;4.18;;
17177;SDS011;8704;52.006;4.374;2022-08-07T05:40:37;6.93;;;4.72;;
17177;SDS011;8704;52.006;4.374;2022-08-07T05:43:17;7.63;;;4.97;;
17177;SDS011;8704;52.006;4.374;2022-08-07T05:46:05;7.07;;;4.97;;
17177;SDS011;8704;52.006;4.374;2022-08-07T05:48:34;7.72;;;5.88;;
17177;SDS011;8704;52.006;4.374;2022-08-07T05:51:24;6.07;;;5.00;;
17177;SDS011;8704;52.006;4.374;2022-08-07T05:53:57;7.72;;;5.03;;
17177;SDS011;8704;52.006;4.374;2022-08-07T05:56:45;7.68;;;5.40;;
17177;SDS011;8704;52.006;4.374;2022-08-07T05:59:17;7.10;;;5.07;;
17177;SDS011;8704;52.006;4.374;2022-08-07T06:01:48;8.52;;;5.32;;
17177;SDS011;8704;52.006;4.374;2022-08-07T06:04:18;9.07;;;5.32;;
17177;SDS011;8704;52.006;4.374;2022-08-07T06:06:56;7.95;;;5.22;;
17177;SDS011;8704;52.006;4.374;2022-08-07T06:09:29;7.18;;;5.15;;
17177;SDS011;8704;52.006;4.374;2022-08-07T06:12:17;6.47;;;5.10;;
17177;SDS011;8704;52.006;4.374;2022-08-07T06:14:57;6.47;;;4.57;;
17177;SDS011;8704;52.006;4.374;2022-08-07T06:17:31;5.70;;;4.15;;
17177;SDS011;8704;52.006;4.374;2022-08-07T06:22:52;6.05;;;4.50;;
17177;SDS011;8704;52.006;4.374;2022-08-07T06:25:41;10.45;;;5.60;;
17177;SDS011;8704;52.006;4.374;2022-08-07T06:28:22;7.57;;;4.57;;
17177;SDS011;8704;52.006;4.374;2022-08-07T06:30:53;6.95;;;4.63;;
17177;SDS011;8704;52.006;4.374;2022-08-07T06:33:23;7.55;;;4.53;;
17177;SDS011;8704;52.006;4.374;2022-08-07T06:35:55;6.35;;;4.05;;
17177;SDS011;8704;52.006;4.374;2022-08-07T06:38:40;7.28;;;4.82;;
17177;SDS011;8704;52.006;4.374;2022-08-07T06:41:30;7.18;;;5.70;;
17177;SDS011;8704;52.006;4.374;2022-08-07T06:44:22;6.43;;;5.57;;
17177;SDS011;8704;52.006;4.374;2022-08-07T06:46:59;8.48;;;5.28;;
17177;SDS011;8704;52.006;4.374;2022-08-07T06:49:41;8.57;;;5.18;;
17177;SDS011;8704;52.006;4.374;2022-08-07T06:52:23;7.75;;;6.10;;
17177;SDS011;8704;52.006;4.374;2022-08-07T06:55:08;8.30;;;6.38;;
17177;SDS011;8704;52.006;4.374;2022-08-07T06:57:58;10.98;;;7.57;;
17177;SDS011;8704;52.006;4.374;2022-08-07T07:00:30;13.00;;;7.90;;
17177;SDS011;8704;52.006;4.374;2022-08-07T07:02:59;8.95;;;7.20;;
17177;SDS011;8704;52.006;4.374;2022-08-07T07:05:36;7.95;;;6.45;;
17177;SDS011;8704;52.006;4.374;2022-08-07T07:08:25;7.75;;;5.72;;
17177;SDS011;8704;52.006;4.374;2022-08-07T07:10:57;9.00;;;6.07;;
17177;SDS011;8704;52.006;4.374;2022-08-07T07:13:40;7.97;;;5.50;;
17177;SDS011;8704;52.006;4.374;2022-08-07T07:16:27;7.50;;;5.78;;
17177;SDS011;8704;52.006;4.374;2022-08-07T07:19:16;8.10;;;5.50;;
17177;SDS011;8704;52.006;4.374;2022-08-07T07:22:08;9.18;;;5.65;;
17177;SDS011;8704;52.006;4.374;2022-08-07T07:24:56;7.68;;;5.32;;
17177;SDS011;8704;52.006;4.374;2022-08-07T07:27:49;6.40;;;4.82;;
17177;SDS011;8704;52.006;4.374;2022-08-07T07:30:30;6.05;;;3.90;;
17177;SDS011;8704;52.006;4.374;2022-08-07T07:33:05;5.30;;;3.20;;
17177;SDS011;8704;52.006;4.374;2022-08-07T07:35:37;4.80;;;2.72;;
17177;SDS011;8704;52.006;4.374;2022-08-07T07:38:20;6.30;;;2.70;;
17177;SDS011;8704;52.006;4.374;2022-08-07T07:40:49;6.03;;;3.42;;
17177;SDS011;8704;52.006;4.374;2022-08-07T07:43:29;5.00;;;3.10;;
17177;SDS011;8704;52.006;4.374;2022-08-07T07:46:19;6.93;;;2.70;;
17177;SDS011;8704;52.006;4.374;2022-08-07T07:49:10;4.10;;;2.55;;
17177;SDS011;8704;52.006;4.374;2022-08-07T07:52:01;5.05;;;2.20;;
17177;SDS011;8704;52.006;4.374;2022-08-07T07:54:30;5.63;;;2.03;;
17177;SDS011;8704;52.006;4.374;2022-08-07T07:57:01;3.67;;;2.00;;
17177;SDS011;8704;52.006;4.374;2022-08-07T07:59:31;4.18;;;2.30;;
17177;SDS011;8704;52.006;4.374;2022-08-07T08:02:18;4.57;;;2.95;;
17177;SDS011;8704;52.006;4.374;2022-08-07T08:05:01;5.72;;;3.40;;
17177;SDS011;8704;52.006;4.374;2022-08-07T08:07:40;5.68;;;3.22;;
17177;SDS011;8704;52.006;4.374;2022-08-07T08:10:26;7.38;;;3.65;;
17177;SDS011;8704;52.006;4.374;2022-08-07T08:13:04;6.55;;;3.88;;
17177;SDS011;8704;52.006;4.374;2022-08-07T08:15:42;7.65;;;3.38;;
17177;SDS011;8704;52.006;4.374;2022-08-07T08:18:24;7.20;;;3.65;;
17177;SDS011;8704;52.006;4.374;2022-08-07T08:20:54;4.82;;;3.38;;
17177;SDS011;8704;52.006;4.374;2022-08-07T08:23:24;7.10;;;3.63;;
17177;SDS011;8704;52.006;4.374;2022-08-07T08:26:12;6.05;;;3.35;;
17177;SDS011;8704;52.006;4.374;2022-08-07T08:29:00;5.40;;;3.38;;
17177;SDS011;8704;52.006;4.374;2022-08-07T08:31:32;5.22;;;3.40;;
17177;SDS011;8704;52.006;4.374;2022-08-07T08:34:22;5.43;;;2.80;;
17177;SDS011;8704;52.006;4.374;2022-08-07T08:36:54;5.10;;;3.15;;
17177;SDS011;8704;52.006;4.374;2022-08-07T08:39:23;7.47;;;3.67;;
17177;SDS011;8704;52.006;4.374;2022-08-07T08:42:15;5.20;;;3.15;;
17177;SDS011;8704;52.006;4.374;2022-08-07T08:44:53;4.35;;;3.03;;
17177;SDS011;8704;52.006;4.374;2022-08-07T08:47:32;5.25;;;3.00;;
17177;SDS011;8704;52.006;4.374;2022-08-07T08:50:20;5.47;;;3.15;;
17177;SDS011;8704;52.006;4.374;2022-08-07T08:53:05;7.03;;;2.70;;
17177;SDS011;8704;52.006;4.374;2022-08-07T08:55:43;3.90;;;2.45;;
17177;SDS011;8704;52.006;4.374;2022-08-07T08:58:26;5.50;;;2.57;;
17177;SDS011;8704;52.006;4.374;2022-08-07T09:01:01;5.13;;;2.92;;
17177;SDS011;8704;52.006;4.374;2022-08-07T09:03:47;4.90;;;2.67;;
17177;SDS011;8704;52.006;4.374;2022-08-07T09:06:27;5.53;;;2.90;;
17177;SDS011;8704;52.006;4.374;2022-08-07T09:09:06;5.35;;;2.30;;
17177;SDS011;8704;52.006;4.374;2022-08-07T09:11:57;3.47;;;2.28;;
17177;SDS011;8704;52.006;4.374;2022-08-07T09:14:59;5.03;;;2.63;;
17177;SDS011;8704;52.006;4.374;2022-08-07T09:18:06;5.45;;;2.65;;
17177;SDS011;8704;52.006;4.374;2022-08-07T09:20:56;4.30;;;2.40;;
17177;SDS011;8704;52.006;4.374;2022-08-07T09:23:31;4.00;;;2.35;;
17177;SDS011;8704;52.006;4.374;2022-08-07T09:26:29;5.40;;;2.38;;
17177;SDS011;8704;52.006;4.374;2022-08-07T09:29:16;4.70;;;2.35;;
17177;SDS011;8704;52.006;4.374;2022-08-07T09:32:12;3.38;;;2.20;;
17177;SDS011;8704;52.006;4.374;2022-08-07T09:34:53;3.65;;;2.50;;
17177;SDS011;8704;52.006;4.374;2022-08-07T09:37:53;3.80;;;2.33;;
17177;SDS011;8704;52.006;4.374;2022-08-07T09:40:27;4.43;;;2.40;;
17177;SDS011;8704;52.006;4.374;2022-08-07T09:43:06;6.45;;;2.20;;
17177;SDS011;8704;52.006;4.374;2022-08-07T09:46:12;4.32;;;2.20;;
17177;SDS011;8704;52.006;4.374;2022-08-07T09:52:25;3.95;;;2.35;;
17177;SDS011;8704;52.006;4.374;2022-08-07T09:55:03;5.30;;;2.38;;
17177;SDS011;8704;52.006;4.374;2022-08-07T10:01:03;4.57;;;1.98;;
17177;SDS011;8704;52.006;4.374;2022-08-07T10:07:17;5.38;;;2.40;;
17177;SDS011;8704;52.006;4.374;2022-08-07T10:10:21;6.38;;;2.67;;
17177;SDS011;8704;52.006;4.374;2022-08-07T10:16:37;4.85;;;2.45;;
17177;SDS011;8704;52.006;4.374;2022-08-07T10:19:33;3.70;;;2.30;;
17177;SDS011;8704;52.006;4.374;2022-08-07T10:25:06;3.13;;;2.15;;
17177;SDS011;8704;52.006;4.374;2022-08-07T10:28:15;3.60;;;2.38;;
17177;SDS011;8704;52.006;4.374;2022-08-07T10:30:57;4.18;;;2.28;;
17177;SDS011;8704;52.006;4.374;2022-08-07T10:33:42;3.47;;;2.22;;
17177;SDS011;8704;52.006;4.374;2022-08-07T10:36:43;4.25;;;2.15;;
17177;SDS011;8704;52.006;4.374;2022-08-07T10:39:29;4.47;;;2.20;;
17177;SDS011;8704;52.006;4.374;2022-08-07T10:42:24;4.82;;;2.08;;
17177;SDS011;8704;52.006;4.374;2022-08-07T10:45:07;3.05;;;1.83;;
17177;SDS011;8704;52.006;4.374;2022-08-07T10:47:46;5.63;;;2.10;;
17177;SDS011;8704;52.006;4.374;2022-08-07T10:50:30;4.82;;;1.90;;
17177;SDS011;8704;52.006;4.374;2022-08-07T10:53:03;5.03;;;1.70;;
17177;SDS011;8704;52.006;4.374;2022-08-07T10:55:44;3.88;;;1.40;;
17177;SDS011;8704;52.006;4.374;2022-08-07T10:58:36;2.97;;;1.30;;
17177;SDS011;8704;52.006;4.374;2022-08-07T11:01:30;2.55;;;1.17;;
17177;SDS011;8704;52.006;4.374;2022-08-07T11:04:28;3.13;;;1.30;;
17177;SDS011;8704;52.006;4.374;2022-08-07T11:07:21;2.50;;;1.40;;
17177;SDS011;8704;52.006;4.374;2022-08-07T11:10:22;3.90;;;1.42;;
17177;SDS011;8704;52.006;4.374;2022-08-07T11:12:55;3.38;;;1.48;;
17177;SDS011;8704;52.006;4.374;2022-08-07T11:15:29;2.65;;;1.40;;
17177;SDS011;8704;52.006;4.374;2022-08-07T11:18:05;2.55;;;1.02;;
17177;SDS011;8704;52.006;4.374;2022-08-07T11:20:45;2.38;;;1.08;;
17177;SDS011;8704;52.006;4.374;2022-08-07T11:23:21;1.63;;;1.10;;
17177;SDS011;8704;52.006;4.374;2022-08-07T11:26:06;2.38;;;1.20;;
17177;SDS011;8704;52.006;4.374;2022-08-07T11:28:40;1.90;;;1.17;;
17177;SDS011;8704;52.006;4.374;2022-08-07T11:31:22;3.90;;;1.15;;
17177;SDS011;8704;52.006;4.374;2022-08-07T11:34:04;3.38;;;1.38;;
17177;SDS011;8704;52.006;4.374;2022-08-07T11:36:46;2.85;;;1.40;;
17177;SDS011;8704;52.006;4.374;2022-08-07T11:39:31;2.83;;;1.33;;
17177;SDS011;8704;52.006;4.374;2022-08-07T11:42:29;3.30;;;1.50;;
17177;SDS011;8704;52.006;4.374;2022-08-07T11:45:09;3.45;;;1.90;;
17177;SDS011;8704;52.006;4.374;2022-08-07T11:47:52;5.28;;;2.08;;
17177;SDS011;8704;52.006;4.374;2022-08-07T11:50:58;3.05;;;1.77;;
17177;SDS011;8704;52.006;4.374;2022-08-07T11:54:04;3.47;;;1.80;;
17177;SDS011;8704;52.006;4.374;2022-08-07T11:57:01;4.45;;;2.20;;
17177;SDS011;8704;52.006;4.374;2022-08-07T11:59:42;3.38;;;1.67;;
17177;SDS011;8704;52.006;4.374;2022-08-07T12:02:55;4.03;;;2.08;;
17177;SDS011;8704;52.006;4.374;2022-08-07T12:06:09;3.85;;;1.90;;
17177;SDS011;8704;52.006;4.374;2022-08-07T12:09:07;3.53;;;2.00;;
17177;SDS011;8704;52.006;4.374;2022-08-07T12:11:44;3.00;;;1.77;;
17177;SDS011;8704;52.006;4.374;2022-08-07T12:14:40;4.13;;;1.98;;
17177;SDS011;8704;52.006;4.374;2022-08-07T12:17:27;5.20;;;2.15;;
17177;SDS011;8704;52.006;4.374;2022-08-07T12:20:02;4.40;;;1.70;;
17177;SDS011;8704;52.006;4.374;2022-08-07T12:23:05;4.07;;;1.80;;
17177;SDS011;8704;52.006;4.374;2022-08-07T12:25:47;5.60;;;1.92;;
17177;SDS011;8704;52.006;4.374;2022-08-07T12:31:11;3.30;;;2.00;;
17177;SDS011;8704;52.006;4.374;2022-08-07T12:33:48;4.68;;;2.20;;
17177;SDS011;8704;52.006;4.374;2022-08-07T12:36:27;3.25;;;1.85;;
17177;SDS011;8704;52.006;4.374;2022-08-07T12:39:01;3.47;;;1.80;;
17177;SDS011;8704;52.006;4.374;2022-08-07T12:41:52;3.25;;;1.70;;
17177;SDS011;8704;52.006;4.374;2022-08-07T12:44:21;4.93;;;1.90;;
17177;SDS011;8704;52.006;4.374;2022-08-07T12:46:56;4.40;;;1.90;;
17177;SDS011;8704;52.006;4.374;2022-08-07T12:49:32;4.35;;;2.10;;
17177;SDS011;8704;52.006;4.374;2022-08-07T12:52:20;3.35;;;1.75;;
17177;SDS011;8704;52.006;4.374;2022-08-07T12:55:02;5.32;;;1.83;;
17177;SDS011;8704;52.006;4.374;2022-08-07T12:57:42;4.32;;;1.80;;
17177;SDS011;8704;52.006;4.374;2022-08-07T13:00:30;6.93;;;2.05;;
17177;SDS011;8704;52.006;4.374;2022-08-07T13:06:37;3.83;;;2.00;;
17177;SDS011;8704;52.006;4.374;2022-08-07T13:09:30;3.65;;;2.20;;
17177;SDS011;8704;52.006;4.374;2022-08-07T13:12:33;3.35;;;1.80;;
17177;SDS011;8704;52.006;4.374;2022-08-07T13:15:15;3.08;;;2.10;;
17177;SDS011;8704;52.006;4.374;2022-08-07T13:17:58;3.80;;;1.90;;
17177;SDS011;8704;52.006;4.374;2022-08-07T13:20:53;5.20;;;1.83;;
17177;SDS011;8704;52.006;4.374;2022-08-07T13:23:28;3.97;;;1.90;;
17177;SDS011;8704;52.006;4.374;2022-08-07T13:26:24;3.95;;;2.15;;
17177;SDS011;8704;52.006;4.374;2022-08-07T13:29:00;3.70;;;1.88;;
17177;SDS011;8704;52.006;4.374;2022-08-07T13:31:39;4.22;;;2.00;;
17177;SDS011;8704;52.006;4.374;2022-08-07T13:34:24;4.32;;;2.10;;
17177;SDS011;8704;52.006;4.374;2022-08-07T13:37:12;3.60;;;1.77;;
17177;SDS011;8704;52.006;4.374;2022-08-07T13:39:47;2.83;;;1.65;;
17177;SDS011;8704;52.006;4.374;2022-08-07T13:42:42;3.38;;;2.00;;
17177;SDS011;8704;52.006;4.374;2022-08-07T13:45:15;5.05;;;1.90;;
17177;SDS011;8704;52.006;4.374;2022-08-07T13:48:07;3.13;;;1.63;;
17177;SDS011;8704;52.006;4.374;2022-08-07T13:50:58;4.33;;;1.70;;
17177;SDS011;8704;52.006;4.374;2022-08-07T13:53:48;4.45;;;1.70;;
17177;SDS011;8704;52.006;4.374;2022-08-07T13:56:28;5.15;;;1.95;;
17177;SDS011;8704;52.006;4.374;2022-08-07T13:59:07;3.78;;;1.70;;
17177;SDS011;8704;52.006;4.374;2022-08-07T14:01:44;4.35;;;1.70;;
17177;SDS011;8704;52.006;4.374;2022-08-07T14:04:30;3.38;;;1.50;;
17177;SDS011;8704;52.006;4.374;2022-08-07T14:07:16;3.63;;;1.63;;
17177;SDS011;8704;52.006;4.374;2022-08-07T14:09:51;3.67;;;1.50;;
17177;SDS011;8704;52.006;4.374;2022-08-07T14:12:43;5.10;;;1.73;;
17177;SDS011;8704;52.006;4.374;2022-08-07T14:15:25;3.65;;;1.75;;
17177;SDS011;8704;52.006;4.374;2022-08-07T14:18:02;3.95;;;2.05;;
17177;SDS011;8704;52.006;4.374;2022-08-07T14:20:56;3.65;;;1.65;;
17177;SDS011;8704;52.006;4.374;2022-08-07T14:23:33;5.75;;;2.17;;
17177;SDS011;8704;52.006;4.374;2022-08-07T14:26:25;4.63;;;2.13;;
17177;SDS011;8704;52.006;4.374;2022-08-07T14:28:59;3.90;;;1.90;;
17177;SDS011;8704;52.006;4.374;2022-08-07T14:31:49;3.28;;;1.90;;
17177;SDS011;8704;52.006;4.374;2022-08-07T14:34:24;4.68;;;1.73;;
17177;SDS011;8704;52.006;4.374;2022-08-07T14:36:55;3.80;;;2.05;;
17177;SDS011;8704;52.006;4.374;2022-08-07T14:39:28;4.78;;;2.13;;
17177;SDS011;8704;52.006;4.374;2022-08-07T14:42:26;3.92;;;1.95;;
17177;SDS011;8704;52.006;4.374;2022-08-07T14:44:58;4.03;;;2.00;;
17177;SDS011;8704;52.006;4.374;2022-08-07T14:47:48;4.40;;;2.20;;
17177;SDS011;8704;52.006;4.374;2022-08-07T14:50:25;4.47;;;1.83;;
17177;SDS011;8704;52.006;4.374;2022-08-07T14:53:03;3.70;;;2.25;;
17177;SDS011;8704;52.006;4.374;2022-08-07T14:55:35;4.07;;;1.80;;
17177;SDS011;8704;52.006;4.374;2022-08-07T14:58:26;3.00;;;1.70;;
17177;SDS011;8704;52.006;4.374;2022-08-07T15:01:00;3.17;;;1.90;;
17177;SDS011;8704;52.006;4.374;2022-08-07T15:03:47;3.00;;;1.90;;
17177;SDS011;8704;52.006;4.374;2022-08-07T15:06:22;3.13;;;1.95;;
17177;SDS011;8704;52.006;4.374;2022-08-07T15:08:51;4.00;;;1.90;;
17177;SDS011;8704;52.006;4.374;2022-08-07T15:11:23;4.22;;;2.00;;
17177;SDS011;8704;52.006;4.374;2022-08-07T15:14:14;4.20;;;1.95;;
17177;SDS011;8704;52.006;4.374;2022-08-07T15:16:48;3.67;;;1.90;;
17177;SDS011;8704;52.006;4.374;2022-08-07T15:19:21;4.05;;;1.90;;
17177;SDS011;8704;52.006;4.374;2022-08-07T15:22:14;4.20;;;2.17;;
17177;SDS011;8704;52.006;4.374;2022-08-07T15:24:56;5.68;;;2.10;;
17177;SDS011;8704;52.006;4.374;2022-08-07T15:27:44;4.75;;;2.22;;
17177;SDS011;8704;52.006;4.374;2022-08-07T15:30:35;6.07;;;2.38;;
17177;SDS011;8704;52.006;4.374;2022-08-07T15:33:24;3.30;;;2.10;;
17177;SDS011;8704;52.006;4.374;2022-08-07T15:36:01;5.38;;;2.15;;
17177;SDS011;8704;52.006;4.374;2022-08-07T15:38:34;3.53;;;1.85;;
17177;SDS011;8704;52.006;4.374;2022-08-07T15:41:24;6.10;;;2.30;;
17177;SDS011;8704;52.006;4.374;2022-08-07T15:44:16;5.88;;;2.33;;
17177;SDS011;8704;52.006;4.374;2022-08-07T15:46:53;6.10;;;2.05;;
17177;SDS011;8704;52.006;4.374;2022-08-07T15:49:34;4.78;;;2.00;;
17177;SDS011;8704;52.006;4.374;2022-08-07T15:52:23;4.35;;;2.22;;
17177;SDS011;8704;52.006;4.374;2022-08-07T15:54:58;4.47;;;2.50;;
17177;SDS011;8704;52.006;4.374;2022-08-07T15:57:34;4.30;;;2.53;;
17177;SDS011;8704;52.006;4.374;2022-08-07T16:00:14;5.20;;;2.40;;
17177;SDS011;8704;52.006;4.374;2022-08-07T16:03:00;4.70;;;2.45;;
17177;SDS011;8704;52.006;4.374;2022-08-07T16:05:30;3.75;;;2.28;;
17177;SDS011;8704;52.006;4.374;2022-08-07T16:08:02;4.10;;;2.55;;
17177;SDS011;8704;52.006;4.374;2022-08-07T16:10:58;3.83;;;2.30;;
17177;SDS011;8704;52.006;4.374;2022-08-07T16:13:59;4.82;;;2.58;;
17177;SDS011;8704;52.006;4.374;2022-08-07T16:16:39;5.85;;;2.55;;
17177;SDS011;8704;52.006;4.374;2022-08-07T16:19:29;4.25;;;2.33;;
17177;SDS011;8704;52.006;4.374;2022-08-07T16:22:35;4.82;;;2.47;;
17177;SDS011;8704;52.006;4.374;2022-08-07T16:25:26;5.70;;;2.65;;
17177;SDS011;8704;52.006;4.374;2022-08-07T16:28:41;6.45;;;3.15;;
17177;SDS011;8704;52.006;4.374;2022-08-07T16:31:38;5.68;;;3.00;;
17177;SDS011;8704;52.006;4.374;2022-08-07T16:34:25;3.53;;;2.53;;
17177;SDS011;8704;52.006;4.374;2022-08-07T16:37:17;5.95;;;2.90;;
17177;SDS011;8704;52.006;4.374;2022-08-07T16:43:34;6.35;;;2.90;;
17177;SDS011;8704;52.006;4.374;2022-08-07T16:46:41;6.05;;;2.70;;
17177;SDS011;8704;52.006;4.374;2022-08-07T16:49:50;4.95;;;2.83;;
17177;SDS011;8704;52.006;4.374;2022-08-07T16:53:02;6.47;;;2.77;;
17177;SDS011;8704;52.006;4.374;2022-08-07T16:56:02;8.23;;;2.80;;
17177;SDS011;8704;52.006;4.374;2022-08-07T16:58:52;5.28;;;2.80;;
17177;SDS011;8704;52.006;4.374;2022-08-07T17:01:47;5.65;;;2.80;;